sensor_id;sensor_type;location;lat;lon;timestamp;temperature;humidity
13049;DHT22;6591;51.446;5.404;2023-01-26T00:01:36;1.80;99.90
13049;DHT22;6591;51.446;5.404;2023-01-26T00:04:03;1.80;99.90
13049;DHT22;6591;51.446;5.404;2023-01-26T00:06:30;1.90;99.90
13049;DHT22;6591;51.446;5.404;2023-01-26T00:08:57;1.90;99.90
13049;DHT22;6591;51.446;5.404;2023-01-26T00:11:25;1.90;99.90
13049;DHT22;6591;51.446;5.404;2023-01-26T00:13:57;1.90;99.90
13049;DHT22;6591;51.446;5.404;2023-01-26T00:16:26;1.90;99.90
13049;DHT22;6591;51.446;5.404;2023-01-26T00:18:54;1.90;99.90
13049;DHT22;6591;51.446;5.404;2023-01-26T00:21:23;1.90;99.90
13049;DHT22;6591;51.446;5.404;2023-01-26T00:23:51;1.90;99.90
13049;DHT22;6591;51.446;5.404;2023-01-26T00:26:20;1.90;99.90
13049;DHT22;6591;51.446;5.404;2023-01-26T00:28:50;1.90;99.90
13049;DHT22;6591;51.446;5.404;2023-01-26T00:31:20;1.90;99.90
13049;DHT22;6591;51.446;5.404;2023-01-26T00:33:52;1.90;99.90
13049;DHT22;6591;51.446;5.404;2023-01-26T00:36:20;1.90;99.90
13049;DHT22;6591;51.446;5.404;2023-01-26T00:38:48;2.80;99.90
13049;DHT22;6591;51.446;5.404;2023-01-26T00:41:15;1.90;99.90
13049;DHT22;6591;51.446;5.404;2023-01-26T00:44:01;1.90;99.90
13049;DHT22;6591;51.446;5.404;2023-01-26T00:46:28;1.90;99.90
13049;DHT22;6591;51.446;5.404;2023-01-26T00:48:55;1.90;99.90
13049;DHT22;6591;51.446;5.404;2023-01-26T00:51:23;2.00;99.90
13049;DHT22;6591;51.446;5.404;2023-01-26T00:53:50;2.00;99.90
13049;DHT22;6591;51.446;5.404;2023-01-26T00:56:17;2.00;99.90
13049;DHT22;6591;51.446;5.404;2023-01-26T00:58:45;2.40;99.90
13049;DHT22;6591;51.446;5.404;2023-01-26T01:01:12;2.00;99.90
13049;DHT22;6591;51.446;5.404;2023-01-26T01:03:41;2.00;99.90
13049;DHT22;6591;51.446;5.404;2023-01-26T01:06:08;2.00;99.90
13049;DHT22;6591;51.446;5.404;2023-01-26T01:08:35;2.00;99.90
13049;DHT22;6591;51.446;5.404;2023-01-26T01:11:07;2.00;99.90
13049;DHT22;6591;51.446;5.404;2023-01-26T01:13:37;2.00;99.90
13049;DHT22;6591;51.446;5.404;2023-01-26T01:16:12;3.30;99.90
13049;DHT22;6591;51.446;5.404;2023-01-26T01:18:41;2.10;99.90
13049;DHT22;6591;51.446;5.404;2023-01-26T01:21:14;2.10;99.90
13049;DHT22;6591;51.446;5.404;2023-01-26T01:23:43;2.10;99.90
13049;DHT22;6591;51.446;5.404;2023-01-26T01:26:11;2.10;99.90
13049;DHT22;6591;51.446;5.404;2023-01-26T01:28:40;2.10;99.90
13049;DHT22;6591;51.446;5.404;2023-01-26T01:31:13;2.10;99.90
13049;DHT22;6591;51.446;5.404;2023-01-26T01:33:43;2.10;99.90
13049;DHT22;6591;51.446;5.404;2023-01-26T01:36:13;2.10;99.90
13049;DHT22;6591;51.446;5.404;2023-01-26T01:38:43;2.10;99.90
13049;DHT22;6591;51.446;5.404;2023-01-26T01:41:12;2.10;99.90
13049;DHT22;6591;51.446;5.404;2023-01-26T01:43:41;2.10;99.90
13049;DHT22;6591;51.446;5.404;2023-01-26T01:51:52;2.10;99.90
13049;DHT22;6591;51.446;5.404;2023-01-26T01:54:37;2.10;99.90
13049;DHT22;6591;51.446;5.404;2023-01-26T01:57:15;2.10;99.90
13049;DHT22;6591;51.446;5.404;2023-01-26T01:59:59;2.10;99.90
13049;DHT22;6591;51.446;5.404;2023-01-26T02:02:50;2.10;99.90
13049;DHT22;6591;51.446;5.404;2023-01-26T02:05:53;2.10;99.90
13049;DHT22;6591;51.446;5.404;2023-01-26T02:08:38;2.10;99.90
13049;DHT22;6591;51.446;5.404;2023-01-26T02:11:17;2.10;99.90
13049;DHT22;6591;51.446;5.404;2023-01-26T02:13:49;2.10;99.90
13049;DHT22;6591;51.446;5.404;2023-01-26T02:16:18;2.10;99.90
13049;DHT22;6591;51.446;5.404;2023-01-26T02:18:45;2.10;99.90
13049;DHT22;6591;51.446;5.404;2023-01-26T02:21:16;2.20;99.90
13049;DHT22;6591;51.446;5.404;2023-01-26T02:24:06;2.20;99.90
13049;DHT22;6591;51.446;5.404;2023-01-26T02:26:36;2.20;99.90
13049;DHT22;6591;51.446;5.404;2023-01-26T02:29:07;2.20;99.90
13049;DHT22;6591;51.446;5.404;2023-01-26T02:31:41;2.20;99.90
13049;DHT22;6591;51.446;5.404;2023-01-26T02:34:10;4.10;99.90
13049;DHT22;6591;51.446;5.404;2023-01-26T02:36:37;4.20;99.90
13049;DHT22;6591;51.446;5.404;2023-01-26T02:41:56;2.20;99.90
13049;DHT22;6591;51.446;5.404;2023-01-26T02:44:42;2.20;99.90
13049;DHT22;6591;51.446;5.404;2023-01-26T02:47:15;2.30;99.90
13049;DHT22;6591;51.446;5.404;2023-01-26T02:49:46;2.20;99.90
13049;DHT22;6591;51.446;5.404;2023-01-26T02:52:20;2.20;99.90
13049;DHT22;6591;51.446;5.404;2023-01-26T02:54:56;2.30;99.90
13049;DHT22;6591;51.446;5.404;2023-01-26T02:57:44;2.30;99.90
13049;DHT22;6591;51.446;5.404;2023-01-26T03:00:23;2.20;99.90
13049;DHT22;6591;51.446;5.404;2023-01-26T03:02:53;2.30;99.90
13049;DHT22;6591;51.446;5.404;2023-01-26T03:05:25;2.30;99.90
13049;DHT22;6591;51.446;5.404;2023-01-26T03:07:54;2.30;99.90
13049;DHT22;6591;51.446;5.404;2023-01-26T03:10:28;2.30;99.90
13049;DHT22;6591;51.446;5.404;2023-01-26T03:12:55;2.30;99.90
13049;DHT22;6591;51.446;5.404;2023-01-26T03:15:22;2.30;99.90
13049;DHT22;6591;51.446;5.404;2023-01-26T03:18:16;2.40;99.90
13049;DHT22;6591;51.446;5.404;2023-01-26T03:21:10;2.40;99.90
13049;DHT22;6591;51.446;5.404;2023-01-26T03:24:02;2.40;99.90
13049;DHT22;6591;51.446;5.404;2023-01-26T03:26:53;2.40;99.90
13049;DHT22;6591;51.446;5.404;2023-01-26T03:29:40;2.40;99.90
13049;DHT22;6591;51.446;5.404;2023-01-26T03:32:07;2.40;99.90
13049;DHT22;6591;51.446;5.404;2023-01-26T03:34:34;4.20;99.90
13049;DHT22;6591;51.446;5.404;2023-01-26T03:37:04;2.50;99.90
13049;DHT22;6591;51.446;5.404;2023-01-26T03:39:50;2.50;99.90
13049;DHT22;6591;51.446;5.404;2023-01-26T03:42:37;2.50;99.90
13049;DHT22;6591;51.446;5.404;2023-01-26T03:45:23;2.50;99.90
13049;DHT22;6591;51.446;5.404;2023-01-26T03:48:11;2.60;99.90
13049;DHT22;6591;51.446;5.404;2023-01-26T03:50:58;2.60;99.90
13049;DHT22;6591;51.446;5.404;2023-01-26T03:53:44;2.60;99.90
13049;DHT22;6591;51.446;5.404;2023-01-26T03:56:29;2.60;99.90
13049;DHT22;6591;51.446;5.404;2023-01-26T03:59:07;2.60;99.90
13049;DHT22;6591;51.446;5.404;2023-01-26T04:01:45;2.60;99.90
13049;DHT22;6591;51.446;5.404;2023-01-26T04:04:33;2.70;99.90
13049;DHT22;6591;51.446;5.404;2023-01-26T04:07:24;2.70;99.90
13049;DHT22;6591;51.446;5.404;2023-01-26T04:10:10;2.70;99.90
13049;DHT22;6591;51.446;5.404;2023-01-26T04:12:38;2.70;99.90
13049;DHT22;6591;51.446;5.404;2023-01-26T04:15:13;2.70;99.90
13049;DHT22;6591;51.446;5.404;2023-01-26T04:18:05;2.70;99.90
13049;DHT22;6591;51.446;5.404;2023-01-26T04:20:53;3.40;99.90
13049;DHT22;6591;51.446;5.404;2023-01-26T04:23:40;4.90;99.90
13049;DHT22;6591;51.446;5.404;2023-01-26T04:26:07;4.90;99.90
13049;DHT22;6591;51.446;5.404;2023-01-26T04:28:34;2.80;99.90
13049;DHT22;6591;51.446;5.404;2023-01-26T04:31:02;2.70;99.90
13049;DHT22;6591;51.446;5.404;2023-01-26T04:33:34;1.00;99.90
13049;DHT22;6591;51.446;5.404;2023-01-26T04:36:05;2.80;99.90
13049;DHT22;6591;51.446;5.404;2023-01-26T04:38:37;2.80;99.90
13049;DHT22;6591;51.446;5.404;2023-01-26T04:41:05;2.80;99.90
13049;DHT22;6591;51.446;5.404;2023-01-26T04:43:39;2.80;99.90
13049;DHT22;6591;51.446;5.404;2023-01-26T04:46:07;2.80;99.90
13049;DHT22;6591;51.446;5.404;2023-01-26T04:48:37;2.80;99.90
13049;DHT22;6591;51.446;5.404;2023-01-26T04:51:09;2.80;99.90
13049;DHT22;6591;51.446;5.404;2023-01-26T04:53:39;2.90;99.90
13049;DHT22;6591;51.446;5.404;2023-01-26T04:56:07;2.90;99.90
13049;DHT22;6591;51.446;5.404;2023-01-26T04:58:41;4.20;99.90
13049;DHT22;6591;51.446;5.404;2023-01-26T05:01:08;3.60;99.90
13049;DHT22;6591;51.446;5.404;2023-01-26T05:03:35;2.90;99.90
13049;DHT22;6591;51.446;5.404;2023-01-26T05:06:02;2.90;99.90
13049;DHT22;6591;51.446;5.404;2023-01-26T05:08:29;4.50;99.90
13049;DHT22;6591;51.446;5.404;2023-01-26T05:10:56;4.40;99.90
13049;DHT22;6591;51.446;5.404;2023-01-26T05:13:39;2.90;99.90
13049;DHT22;6591;51.446;5.404;2023-01-26T05:16:23;2.90;99.90
13049;DHT22;6591;51.446;5.404;2023-01-26T05:19:01;3.00;99.90
13049;DHT22;6591;51.446;5.404;2023-01-26T05:22:03;3.00;99.90
13049;DHT22;6591;51.446;5.404;2023-01-26T05:24:33;4.60;99.90
13049;DHT22;6591;51.446;5.404;2023-01-26T05:27:00;3.00;99.90
13049;DHT22;6591;51.446;5.404;2023-01-26T05:30:03;3.00;99.90
13049;DHT22;6591;51.446;5.404;2023-01-26T05:32:33;3.00;99.90
13049;DHT22;6591;51.446;5.404;2023-01-26T05:35:00;3.00;99.90
13049;DHT22;6591;51.446;5.404;2023-01-26T05:37:29;3.00;99.90
13049;DHT22;6591;51.446;5.404;2023-01-26T05:39:57;5.50;99.90
13049;DHT22;6591;51.446;5.404;2023-01-26T05:42:25;3.00;99.90
13049;DHT22;6591;51.446;5.404;2023-01-26T05:44:58;4.20;99.90
13049;DHT22;6591;51.446;5.404;2023-01-26T05:47:26;3.10;99.90
13049;DHT22;6591;51.446;5.404;2023-01-26T05:49:53;3.10;99.90
13049;DHT22;6591;51.446;5.404;2023-01-26T05:52:25;3.10;99.90
13049;DHT22;6591;51.446;5.404;2023-01-26T05:54:52;3.10;99.90
13049;DHT22;6591;51.446;5.404;2023-01-26T05:57:19;5.30;99.90
13049;DHT22;6591;51.446;5.404;2023-01-26T05:59:51;3.10;99.90
13049;DHT22;6591;51.446;5.404;2023-01-26T06:02:19;4.90;99.90
13049;DHT22;6591;51.446;5.404;2023-01-26T06:04:47;3.10;99.90
13049;DHT22;6591;51.446;5.404;2023-01-26T06:07:15;3.10;99.90
13049;DHT22;6591;51.446;5.404;2023-01-26T06:09:53;3.60;99.90
13049;DHT22;6591;51.446;5.404;2023-01-26T06:12:35;3.10;99.90
13049;DHT22;6591;51.446;5.404;2023-01-26T06:15:16;4.30;99.90
13049;DHT22;6591;51.446;5.404;2023-01-26T06:17:45;3.10;99.90
13049;DHT22;6591;51.446;5.404;2023-01-26T06:20:13;3.10;99.90
13049;DHT22;6591;51.446;5.404;2023-01-26T06:22:48;3.10;99.90
13049;DHT22;6591;51.446;5.404;2023-01-26T06:25:15;3.10;99.90
13049;DHT22;6591;51.446;5.404;2023-01-26T06:27:42;3.10;99.90
13049;DHT22;6591;51.446;5.404;2023-01-26T06:30:17;3.10;99.90
13049;DHT22;6591;51.446;5.404;2023-01-26T06:32:46;3.10;99.90
13049;DHT22;6591;51.446;5.404;2023-01-26T06:35:13;3.10;99.90
13049;DHT22;6591;51.446;5.404;2023-01-26T06:37:41;3.10;99.90
13049;DHT22;6591;51.446;5.404;2023-01-26T06:40:10;3.10;99.90
13049;DHT22;6591;51.446;5.404;2023-01-26T06:42:38;3.10;99.90
13049;DHT22;6591;51.446;5.404;2023-01-26T06:45:05;3.20;99.90
13049;DHT22;6591;51.446;5.404;2023-01-26T06:47:33;3.10;99.90
13049;DHT22;6591;51.446;5.404;2023-01-26T06:50:02;3.20;99.90
13049;DHT22;6591;51.446;5.404;2023-01-26T06:52:31;3.10;99.90
13049;DHT22;6591;51.446;5.404;2023-01-26T06:55:17;3.20;99.90
13049;DHT22;6591;51.446;5.404;2023-01-26T06:57:58;3.10;99.90
13049;DHT22;6591;51.446;5.404;2023-01-26T07:01:01;3.20;99.90
13049;DHT22;6591;51.446;5.404;2023-01-26T07:03:32;4.60;99.90
13049;DHT22;6591;51.446;5.404;2023-01-26T07:05:59;3.20;99.90
13049;DHT22;6591;51.446;5.404;2023-01-26T07:08:26;5.20;99.90
13049;DHT22;6591;51.446;5.404;2023-01-26T07:10:53;5.10;99.90
13049;DHT22;6591;51.446;5.404;2023-01-26T07:13:20;3.20;99.90
13049;DHT22;6591;51.446;5.404;2023-01-26T07:15:48;4.70;99.90
13049;DHT22;6591;51.446;5.404;2023-01-26T07:18:14;3.20;99.90
13049;DHT22;6591;51.446;5.404;2023-01-26T07:20:41;3.10;99.90
13049;DHT22;6591;51.446;5.404;2023-01-26T07:23:08;5.20;99.90
13049;DHT22;6591;51.446;5.404;2023-01-26T07:25:36;3.20;99.90
13049;DHT22;6591;51.446;5.404;2023-01-26T07:28:03;3.10;99.90
13049;DHT22;6591;51.446;5.404;2023-01-26T07:30:30;3.10;99.90
13049;DHT22;6591;51.446;5.404;2023-01-26T07:32:58;3.20;99.90
13049;DHT22;6591;51.446;5.404;2023-01-26T07:35:26;3.20;99.90
13049;DHT22;6591;51.446;5.404;2023-01-26T07:37:55;3.20;99.90
13049;DHT22;6591;51.446;5.404;2023-01-26T07:40:24;3.20;99.90
13049;DHT22;6591;51.446;5.404;2023-01-26T07:42:51;3.10;99.90
13049;DHT22;6591;51.446;5.404;2023-01-26T07:45:39;3.10;99.90
13049;DHT22;6591;51.446;5.404;2023-01-26T07:48:06;3.10;99.90
13049;DHT22;6591;51.446;5.404;2023-01-26T07:50:34;3.10;99.90
13049;DHT22;6591;51.446;5.404;2023-01-26T07:53:01;3.10;99.90
13049;DHT22;6591;51.446;5.404;2023-01-26T07:55:28;5.50;99.90
13049;DHT22;6591;51.446;5.404;2023-01-26T07:57:55;3.20;99.90
13049;DHT22;6591;51.446;5.404;2023-01-26T08:00:23;3.20;99.90
13049;DHT22;6591;51.446;5.404;2023-01-26T08:02:50;3.20;99.90
13049;DHT22;6591;51.446;5.404;2023-01-26T08:05:17;3.20;99.90
13049;DHT22;6591;51.446;5.404;2023-01-26T08:07:44;3.20;99.90
13049;DHT22;6591;51.446;5.404;2023-01-26T08:10:12;3.20;99.90
13049;DHT22;6591;51.446;5.404;2023-01-26T08:12:40;3.20;99.90
13049;DHT22;6591;51.446;5.404;2023-01-26T08:15:07;3.20;99.90
13049;DHT22;6591;51.446;5.404;2023-01-26T08:17:34;3.20;99.90
13049;DHT22;6591;51.446;5.404;2023-01-26T08:20:02;3.20;99.90
13049;DHT22;6591;51.446;5.404;2023-01-26T08:22:29;3.30;99.90
13049;DHT22;6591;51.446;5.404;2023-01-26T08:24:56;3.30;99.90
13049;DHT22;6591;51.446;5.404;2023-01-26T08:27:23;3.30;99.90
13049;DHT22;6591;51.446;5.404;2023-01-26T08:29:50;5.20;99.90
13049;DHT22;6591;51.446;5.404;2023-01-26T08:32:17;3.30;99.90
13049;DHT22;6591;51.446;5.404;2023-01-26T08:34:45;3.30;99.90
13049;DHT22;6591;51.446;5.404;2023-01-26T08:37:12;3.30;99.90
13049;DHT22;6591;51.446;5.404;2023-01-26T08:39:39;3.30;99.90
13049;DHT22;6591;51.446;5.404;2023-01-26T08:42:06;3.30;99.90
13049;DHT22;6591;51.446;5.404;2023-01-26T08:44:33;3.30;99.90
13049;DHT22;6591;51.446;5.404;2023-01-26T08:47:00;3.30;99.90
13049;DHT22;6591;51.446;5.404;2023-01-26T08:49:27;3.30;99.90
13049;DHT22;6591;51.446;5.404;2023-01-26T08:51:54;3.30;99.90
13049;DHT22;6591;51.446;5.404;2023-01-26T08:54:21;3.30;99.90
13049;DHT22;6591;51.446;5.404;2023-01-26T08:56:48;3.30;99.90
13049;DHT22;6591;51.446;5.404;2023-01-26T08:59:15;3.40;99.90
13049;DHT22;6591;51.446;5.404;2023-01-26T09:01:43;3.30;99.90
13049;DHT22;6591;51.446;5.404;2023-01-26T09:04:09;3.40;99.90
13049;DHT22;6591;51.446;5.404;2023-01-26T09:06:36;3.40;99.90
13049;DHT22;6591;51.446;5.404;2023-01-26T09:09:03;3.40;99.90
13049;DHT22;6591;51.446;5.404;2023-01-26T09:11:30;3.40;99.90
13049;DHT22;6591;51.446;5.404;2023-01-26T09:13:57;3.40;99.90
13049;DHT22;6591;51.446;5.404;2023-01-26T09:16:24;3.50;99.90
13049;DHT22;6591;51.446;5.404;2023-01-26T09:18:52;3.50;99.90
13049;DHT22;6591;51.446;5.404;2023-01-26T09:21:20;4.30;99.90
13049;DHT22;6591;51.446;5.404;2023-01-26T09:23:49;3.60;99.90
13049;DHT22;6591;51.446;5.404;2023-01-26T09:26:16;3.60;99.90
13049;DHT22;6591;51.446;5.404;2023-01-26T09:28:43;3.60;99.90
13049;DHT22;6591;51.446;5.404;2023-01-26T09:31:11;3.70;99.90
13049;DHT22;6591;51.446;5.404;2023-01-26T09:33:38;3.80;99.90
13049;DHT22;6591;51.446;5.404;2023-01-26T09:36:07;3.70;99.90
13049;DHT22;6591;51.446;5.404;2023-01-26T09:38:36;3.70;99.90
13049;DHT22;6591;51.446;5.404;2023-01-26T09:41:17;3.70;99.90
13049;DHT22;6591;51.446;5.404;2023-01-26T09:44:07;3.80;99.90
13049;DHT22;6591;51.446;5.404;2023-01-26T09:46:40;3.80;99.90
13049;DHT22;6591;51.446;5.404;2023-01-26T09:49:23;3.80;99.90
13049;DHT22;6591;51.446;5.404;2023-01-26T09:52:05;3.80;99.90
13049;DHT22;6591;51.446;5.404;2023-01-26T09:54:47;3.80;99.90
13049;DHT22;6591;51.446;5.404;2023-01-26T09:57:22;3.80;99.90
13049;DHT22;6591;51.446;5.404;2023-01-26T10:00:07;3.80;99.90
13049;DHT22;6591;51.446;5.404;2023-01-26T10:03:12;3.80;99.90
13049;DHT22;6591;51.446;5.404;2023-01-26T10:06:32;3.80;99.90
13049;DHT22;6591;51.446;5.404;2023-01-26T10:09:26;5.10;99.90
13049;DHT22;6591;51.446;5.404;2023-01-26T10:12:01;3.80;99.90
13049;DHT22;6591;51.446;5.404;2023-01-26T10:17:18;3.80;99.90
13049;DHT22;6591;51.446;5.404;2023-01-26T10:20:00;3.80;99.90
13049;DHT22;6591;51.446;5.404;2023-01-26T10:22:44;3.80;99.90
13049;DHT22;6591;51.446;5.404;2023-01-26T10:25:26;3.90;99.90
13049;DHT22;6591;51.446;5.404;2023-01-26T10:28:10;3.90;99.90
13049;DHT22;6591;51.446;5.404;2023-01-26T10:30:39;4.00;99.90
13049;DHT22;6591;51.446;5.404;2023-01-26T10:33:17;4.00;99.90
13049;DHT22;6591;51.446;5.404;2023-01-26T10:35:47;4.10;99.90
13049;DHT22;6591;51.446;5.404;2023-01-26T10:44:00;4.20;99.90
13049;DHT22;6591;51.446;5.404;2023-01-26T10:46:37;4.30;99.90
13049;DHT22;6591;51.446;5.404;2023-01-26T10:51:37;4.40;99.90
13049;DHT22;6591;51.446;5.404;2023-01-26T10:54:13;4.40;99.90
13049;DHT22;6591;51.446;5.404;2023-01-26T10:56:55;6.00;99.90
13049;DHT22;6591;51.446;5.404;2023-01-26T10:59:36;4.50;99.90
13049;DHT22;6591;51.446;5.404;2023-01-26T11:07:43;4.60;99.90
13049;DHT22;6591;51.446;5.404;2023-01-26T11:10:26;4.60;99.90
13049;DHT22;6591;51.446;5.404;2023-01-26T11:13:18;4.70;99.90
13049;DHT22;6591;51.446;5.404;2023-01-26T11:15:49;6.10;99.90
13049;DHT22;6591;51.446;5.404;2023-01-26T11:24:28;4.90;99.90
13049;DHT22;6591;51.446;5.404;2023-01-26T11:30:47;5.10;99.90
13049;DHT22;6591;51.446;5.404;2023-01-26T11:39:37;5.30;99.90
13049;DHT22;6591;51.446;5.404;2023-01-26T11:42:22;5.90;99.90
13049;DHT22;6591;51.446;5.404;2023-01-26T11:45:31;5.30;99.90
13049;DHT22;6591;51.446;5.404;2023-01-26T11:51:47;5.50;99.90
13049;DHT22;6591;51.446;5.404;2023-01-26T12:00:38;5.70;99.90
13049;DHT22;6591;51.446;5.404;2023-01-26T12:03:25;5.80;99.90
13049;DHT22;6591;51.446;5.404;2023-01-26T12:06:18;5.90;99.90
13049;DHT22;6591;51.446;5.404;2023-01-26T12:09:00;6.00;99.90
13049;DHT22;6591;51.446;5.404;2023-01-26T12:14:49;6.20;99.90
13049;DHT22;6591;51.446;5.404;2023-01-26T12:20:39;6.50;99.90
13049;DHT22;6591;51.446;5.404;2023-01-26T12:25:55;6.70;99.90
13049;DHT22;6591;51.446;5.404;2023-01-26T12:31:39;7.00;99.90
13049;DHT22;6591;51.446;5.404;2023-01-26T12:34:33;7.20;99.90
13049;DHT22;6591;51.446;5.404;2023-01-26T12:47:11;7.80;99.90
13049;DHT22;6591;51.446;5.404;2023-01-26T12:52:55;8.20;99.90
13049;DHT22;6591;51.446;5.404;2023-01-26T12:55:48;8.30;99.90
13049;DHT22;6591;51.446;5.404;2023-01-26T12:58:27;8.40;99.90
13049;DHT22;6591;51.446;5.404;2023-01-26T13:01:06;8.50;99.90
13049;DHT22;6591;51.446;5.404;2023-01-26T13:03:41;8.90;99.90
13049;DHT22;6591;51.446;5.404;2023-01-26T13:11:40;8.90;99.90
13049;DHT22;6591;51.446;5.404;2023-01-26T13:14:36;9.00;99.90
13049;DHT22;6591;51.446;5.404;2023-01-26T13:19:54;9.10;99.90
13049;DHT22;6591;51.446;5.404;2023-01-26T13:22:37;9.20;99.90
13049;DHT22;6591;51.446;5.404;2023-01-26T13:25:27;9.20;99.90
13049;DHT22;6591;51.446;5.404;2023-01-26T13:28:03;9.30;99.90
13049;DHT22;6591;51.446;5.404;2023-01-26T13:30:44;9.30;99.90
13049;DHT22;6591;51.446;5.404;2023-01-26T13:33:22;9.40;99.90
13049;DHT22;6591;51.446;5.404;2023-01-26T13:35:52;9.40;99.90
13049;DHT22;6591;51.446;5.404;2023-01-26T13:38:34;9.40;99.90
13049;DHT22;6591;51.446;5.404;2023-01-26T13:41:18;9.40;99.90
13049;DHT22;6591;51.446;5.404;2023-01-26T13:43:56;9.40;99.90
13049;DHT22;6591;51.446;5.404;2023-01-26T13:46:49;9.40;99.90
13049;DHT22;6591;51.446;5.404;2023-01-26T13:49:43;9.40;99.90
13049;DHT22;6591;51.446;5.404;2023-01-26T13:54:48;9.50;99.90
13049;DHT22;6591;51.446;5.404;2023-01-26T13:57:27;10.40;99.90
13049;DHT22;6591;51.446;5.404;2023-01-26T13:59:58;9.60;99.90
13049;DHT22;6591;51.446;5.404;2023-01-26T14:02:32;9.70;99.90
13049;DHT22;6591;51.446;5.404;2023-01-26T14:05:01;10.10;99.90
13049;DHT22;6591;51.446;5.404;2023-01-26T14:07:38;9.70;99.90
13049;DHT22;6591;51.446;5.404;2023-01-26T14:10:19;9.70;99.90
13049;DHT22;6591;51.446;5.404;2023-01-26T14:12:50;9.60;99.90
13049;DHT22;6591;51.446;5.404;2023-01-26T14:15:26;9.60;99.90
13049;DHT22;6591;51.446;5.404;2023-01-26T14:18:00;9.60;99.90
13049;DHT22;6591;51.446;5.404;2023-01-26T14:20:35;9.60;99.90
13049;DHT22;6591;51.446;5.404;2023-01-26T14:25:44;10.70;99.90
13049;DHT22;6591;51.446;5.404;2023-01-26T14:28:25;9.70;99.90
13049;DHT22;6591;51.446;5.404;2023-01-26T14:31:23;9.80;99.90
13049;DHT22;6591;51.446;5.404;2023-01-26T14:33:53;9.80;99.90
13049;DHT22;6591;51.446;5.404;2023-01-26T14:36:28;9.90;99.90
13049;DHT22;6591;51.446;5.404;2023-01-26T14:38:58;9.90;99.90
13049;DHT22;6591;51.446;5.404;2023-01-26T14:41:29;9.90;99.90
13049;DHT22;6591;51.446;5.404;2023-01-26T14:43:59;11.70;99.90
13049;DHT22;6591;51.446;5.404;2023-01-26T14:49:36;9.80;99.90
13049;DHT22;6591;51.446;5.404;2023-01-26T14:52:32;9.80;99.90
13049;DHT22;6591;51.446;5.404;2023-01-26T14:55:09;9.80;99.90
13049;DHT22;6591;51.446;5.404;2023-01-26T14:57:43;9.70;99.90
13049;DHT22;6591;51.446;5.404;2023-01-26T15:00:27;9.70;99.90
13049;DHT22;6591;51.446;5.404;2023-01-26T15:02:59;9.70;99.90
13049;DHT22;6591;51.446;5.404;2023-01-26T15:05:36;9.70;99.90
13049;DHT22;6591;51.446;5.404;2023-01-26T15:08:27;9.70;99.90
13049;DHT22;6591;51.446;5.404;2023-01-26T15:10:58;9.70;99.90
13049;DHT22;6591;51.446;5.404;2023-01-26T15:13:48;9.70;99.90
13049;DHT22;6591;51.446;5.404;2023-01-26T15:16:23;9.70;99.90
13049;DHT22;6591;51.446;5.404;2023-01-26T15:19:03;9.70;99.90
13049;DHT22;6591;51.446;5.404;2023-01-26T15:21:36;9.70;99.90
13049;DHT22;6591;51.446;5.404;2023-01-26T15:24:12;9.70;99.90
13049;DHT22;6591;51.446;5.404;2023-01-26T15:26:41;9.70;99.90
13049;DHT22;6591;51.446;5.404;2023-01-26T15:29:25;9.70;99.90
13049;DHT22;6591;51.446;5.404;2023-01-26T15:31:57;9.60;99.90
13049;DHT22;6591;51.446;5.404;2023-01-26T15:34:38;9.70;99.90
13049;DHT22;6591;51.446;5.404;2023-01-26T15:37:27;10.40;99.90
13049;DHT22;6591;51.446;5.404;2023-01-26T15:39:56;9.50;99.90
13049;DHT22;6591;51.446;5.404;2023-01-26T15:42:25;9.60;99.90
13049;DHT22;6591;51.446;5.404;2023-01-26T15:44:55;9.40;99.90
13049;DHT22;6591;51.446;5.404;2023-01-26T15:47:22;9.40;99.90
13049;DHT22;6591;51.446;5.404;2023-01-26T15:49:50;10.00;99.90
13049;DHT22;6591;51.446;5.404;2023-01-26T15:52:20;9.80;99.90
13049;DHT22;6591;51.446;5.404;2023-01-26T15:54:51;10.50;99.90
13049;DHT22;6591;51.446;5.404;2023-01-26T15:57:19;9.30;99.90
13049;DHT22;6591;51.446;5.404;2023-01-26T15:59:46;9.30;99.90
13049;DHT22;6591;51.446;5.404;2023-01-26T16:02:18;9.30;99.90
13049;DHT22;6591;51.446;5.404;2023-01-26T16:04:47;9.30;99.90
13049;DHT22;6591;51.446;5.404;2023-01-26T16:07:16;9.30;99.90
13049;DHT22;6591;51.446;5.404;2023-01-26T16:09:44;9.30;99.90
13049;DHT22;6591;51.446;5.404;2023-01-26T16:12:16;9.30;99.90
13049;DHT22;6591;51.446;5.404;2023-01-26T16:14:57;9.20;99.90
13049;DHT22;6591;51.446;5.404;2023-01-26T16:17:24;9.30;99.90
13049;DHT22;6591;51.446;5.404;2023-01-26T16:19:52;9.30;99.90
13049;DHT22;6591;51.446;5.404;2023-01-26T16:22:19;9.20;99.90
13049;DHT22;6591;51.446;5.404;2023-01-26T16:24:46;10.80;99.90
13049;DHT22;6591;51.446;5.404;2023-01-26T16:27:13;9.20;99.90
13049;DHT22;6591;51.446;5.404;2023-01-26T16:29:40;9.20;99.90
13049;DHT22;6591;51.446;5.404;2023-01-26T16:32:21;9.20;99.90
13049;DHT22;6591;51.446;5.404;2023-01-26T16:34:53;9.20;99.90
13049;DHT22;6591;51.446;5.404;2023-01-26T16:37:20;9.20;99.90
13049;DHT22;6591;51.446;5.404;2023-01-26T16:39:47;9.20;99.90
13049;DHT22;6591;51.446;5.404;2023-01-26T16:42:17;9.20;99.90
13049;DHT22;6591;51.446;5.404;2023-01-26T16:44:46;9.20;99.90
13049;DHT22;6591;51.446;5.404;2023-01-26T16:47:13;9.40;99.90
13049;DHT22;6591;51.446;5.404;2023-01-26T16:49:40;9.10;99.90
13049;DHT22;6591;51.446;5.404;2023-01-26T16:52:07;9.10;99.90
13049;DHT22;6591;51.446;5.404;2023-01-26T16:54:36;10.50;99.90
13049;DHT22;6591;51.446;5.404;2023-01-26T16:57:03;9.10;99.90
13049;DHT22;6591;51.446;5.404;2023-01-26T16:59:30;9.10;99.90
13049;DHT22;6591;51.446;5.404;2023-01-26T17:01:57;9.00;99.90
13049;DHT22;6591;51.446;5.404;2023-01-26T17:04:24;10.20;99.90
13049;DHT22;6591;51.446;5.404;2023-01-26T17:06:51;9.00;99.90
13049;DHT22;6591;51.446;5.404;2023-01-26T17:09:19;9.00;99.90
13049;DHT22;6591;51.446;5.404;2023-01-26T17:11:46;8.90;99.90
13049;DHT22;6591;51.446;5.404;2023-01-26T17:14:13;8.90;99.90
13049;DHT22;6591;51.446;5.404;2023-01-26T17:16:41;8.90;99.90
13049;DHT22;6591;51.446;5.404;2023-01-26T17:19:08;8.90;99.90
13049;DHT22;6591;51.446;5.404;2023-01-26T17:21:35;8.90;99.90
13049;DHT22;6591;51.446;5.404;2023-01-26T17:24:03;9.00;99.90
13049;DHT22;6591;51.446;5.404;2023-01-26T17:26:32;8.90;99.90
13049;DHT22;6591;51.446;5.404;2023-01-26T17:28:59;8.90;99.90
13049;DHT22;6591;51.446;5.404;2023-01-26T17:31:26;10.80;99.90
13049;DHT22;6591;51.446;5.404;2023-01-26T17:33:54;8.90;99.90
13049;DHT22;6591;51.446;5.404;2023-01-26T17:36:21;8.90;99.90
13049;DHT22;6591;51.446;5.404;2023-01-26T17:38:49;8.90;99.90
13049;DHT22;6591;51.446;5.404;2023-01-26T17:41:16;8.90;99.90
13049;DHT22;6591;51.446;5.404;2023-01-26T17:43:43;8.90;99.90
13049;DHT22;6591;51.446;5.404;2023-01-26T17:46:15;8.90;99.90
13049;DHT22;6591;51.446;5.404;2023-01-26T17:48:45;8.90;99.90
13049;DHT22;6591;51.446;5.404;2023-01-26T17:51:18;8.90;99.90
13049;DHT22;6591;51.446;5.404;2023-01-26T17:53:48;8.90;99.90
13049;DHT22;6591;51.446;5.404;2023-01-26T17:56:18;8.80;99.90
13049;DHT22;6591;51.446;5.404;2023-01-26T17:58:51;8.80;99.90
13049;DHT22;6591;51.446;5.404;2023-01-26T18:01:23;8.80;99.90
13049;DHT22;6591;51.446;5.404;2023-01-26T18:03:51;9.00;99.90
13049;DHT22;6591;51.446;5.404;2023-01-26T18:06:19;9.40;99.90
13049;DHT22;6591;51.446;5.404;2023-01-26T18:08:47;8.70;99.90
13049;DHT22;6591;51.446;5.404;2023-01-26T18:11:15;8.70;99.90
13049;DHT22;6591;51.446;5.404;2023-01-26T18:13:43;8.70;99.90
13049;DHT22;6591;51.446;5.404;2023-01-26T18:16:14;8.70;99.90